createdAt,value
2023-03-11T00:00:14.168Z,41.89
2023-03-11T00:02:41.081Z,41.53
2023-03-11T00:05:08.716Z,42.05
2023-03-11T00:07:35.334Z,41.79
2023-03-11T00:10:01.864Z,41.66
2023-03-11T00:12:28.367Z,42.47
2023-03-11T00:14:54.890Z,42.13
2023-03-11T00:17:21.428Z,42.45
2023-03-11T00:19:47.959Z,41.67
2023-03-11T00:22:14.490Z,41.38
2023-03-11T00:24:41.039Z,41.31
2023-03-11T00:27:07.568Z,41.72
2023-03-11T00:29:34.064Z,41.89
2023-03-11T00:32:00.662Z,42.40
2023-03-11T00:34:27.229Z,42.71
2023-03-11T00:36:53.782Z,41.60
2023-03-11T00:39:20.334Z,41.71
2023-03-11T00:41:46.890Z,41.85
2023-03-11T00:44:13.425Z,41.83
2023-03-11T00:46:40.095Z,41.98
2023-03-11T00:49:06.628Z,42.46
2023-03-11T00:51:34.275Z,41.89
2023-03-11T00:54:01.318Z,41.90
2023-03-11T00:56:27.880Z,41.92
2023-03-11T00:58:54.430Z,42.52
2023-03-11T01:01:21.369Z,41.85
2023-03-11T01:03:48.328Z,41.44
2023-03-11T01:06:15.189Z,43.15
2023-03-11T01:08:42.108Z,44.64
2023-03-11T01:11:08.926Z,45.32
2023-03-11T01:13:36.239Z,45.72
2023-03-11T01:16:02.921Z,44.71
2023-03-11T01:18:29.779Z,45.70
2023-03-11T01:20:56.570Z,45.00
2023-03-11T01:23:23.160Z,44.72
2023-03-11T01:25:49.666Z,44.84
2023-03-11T01:28:16.381Z,45.19
2023-03-11T01:30:43.547Z,45.28
2023-03-11T01:33:15.507Z,44.67
2023-03-11T01:35:43.576Z,44.62
2023-03-11T01:38:10.730Z,46.03
2023-03-11T01:40:43.001Z,45.13
2023-03-11T01:43:38.844Z,45.54
2023-03-11T01:46:21.462Z,45.79
2023-03-11T01:48:50.797Z,45.29
2023-03-11T01:51:39.204Z,45.17
2023-03-11T01:54:10.757Z,46.22
2023-03-11T01:56:39.302Z,45.29
2023-03-11T01:59:08.059Z,45.68
2023-03-11T02:01:37.959Z,45.72
2023-03-11T02:04:04.682Z,45.66
2023-03-11T02:06:32.506Z,45.49
2023-03-11T02:09:00.946Z,44.22
2023-03-11T02:11:30.218Z,44.38
2023-03-11T02:14:00.808Z,43.88
2023-03-11T02:16:27.650Z,43.66
2023-03-11T02:18:54.403Z,43.50
2023-03-11T02:21:30.208Z,43.17
2023-03-11T02:24:05.492Z,44.94
2023-03-11T02:26:56.669Z,44.20
2023-03-11T02:29:24.862Z,45.58
2023-03-11T02:31:51.727Z,45.62
2023-03-11T02:34:33.493Z,44.75
2023-03-11T02:37:00.898Z,45.66
2023-03-11T02:39:43.344Z,45.99
2023-03-11T02:42:12.681Z,46.38
2023-03-11T02:44:42.660Z,46.05
2023-03-11T02:47:09.812Z,46.85
2023-03-11T02:49:37.034Z,47.56
2023-03-11T02:52:04.518Z,48.42
2023-03-11T02:54:31.223Z,50.19
2023-03-11T02:56:58.075Z,51.20
2023-03-11T02:59:24.608Z,51.88
2023-03-11T03:01:51.139Z,52.30
2023-03-11T03:04:17.749Z,52.02
2023-03-11T03:06:44.353Z,52.42
2023-03-11T03:09:10.899Z,52.03
2023-03-11T03:11:37.559Z,52.36
2023-03-11T03:14:04.139Z,52.21
2023-03-11T03:16:30.740Z,52.35
2023-03-11T03:18:57.320Z,51.84
2023-03-11T03:21:23.908Z,51.28
2023-03-11T03:23:50.430Z,51.10
2023-03-11T03:26:17.083Z,50.65
2023-03-11T03:28:43.636Z,51.09
2023-03-11T03:31:11.305Z,50.62
2023-03-11T03:33:38.148Z,50.75
2023-03-11T03:36:09.861Z,50.75
2023-03-11T03:38:36.457Z,50.46
2023-03-11T03:41:03.315Z,50.34
2023-03-11T03:43:29.969Z,50.70
2023-03-11T03:45:57.576Z,50.93
2023-03-11T03:48:24.318Z,50.78
2023-03-11T03:50:51.456Z,51.30
2023-03-11T03:53:18.224Z,51.62
2023-03-11T03:55:44.743Z,51.05
2023-03-11T03:58:11.312Z,50.55
2023-03-11T04:00:37.866Z,50.75
2023-03-11T04:03:04.799Z,50.45
2023-03-11T04:05:31.937Z,50.83
2023-03-11T04:07:58.628Z,50.69
2023-03-11T04:10:25.200Z,51.23
2023-03-11T04:12:51.728Z,51.15
2023-03-11T04:15:18.417Z,50.60
2023-03-11T04:17:44.991Z,48.16
2023-03-11T04:20:12.026Z,47.93
2023-03-11T04:22:38.587Z,47.11
2023-03-11T04:25:05.516Z,45.46
2023-03-11T04:27:32.087Z,45.31
2023-03-11T04:29:58.633Z,44.79
2023-03-11T04:32:25.245Z,42.79
2023-03-11T04:34:51.918Z,44.24
2023-03-11T04:37:18.431Z,45.36
2023-03-11T04:39:44.940Z,45.12
2023-03-11T04:42:13.945Z,41.89
2023-03-11T04:44:40.485Z,43.82
2023-03-11T04:47:07.051Z,41.63
2023-03-11T04:49:33.646Z,42.54
2023-03-11T04:52:00.228Z,42.61
2023-03-11T04:54:26.833Z,42.57
2023-03-11T04:56:53.371Z,39.48
2023-03-11T04:59:19.919Z,41.51
2023-03-11T05:01:46.534Z,40.34
2023-03-11T05:04:13.197Z,39.73
2023-03-11T05:06:39.753Z,40.23
2023-03-11T05:09:06.757Z,38.10
2023-03-11T05:11:34.472Z,39.11
2023-03-11T05:14:01.097Z,38.56
2023-03-11T05:16:27.882Z,39.23
2023-03-11T05:18:54.470Z,38.97
2023-03-11T05:21:20.975Z,39.79
2023-03-11T05:23:47.503Z,39.52
2023-03-11T05:26:14.034Z,39.51
2023-03-11T05:28:40.647Z,40.13
2023-03-11T05:31:10.621Z,39.43
2023-03-11T05:33:37.639Z,40.86
2023-03-11T05:36:09.125Z,38.64
2023-03-11T05:38:37.313Z,39.66
2023-03-11T05:41:04.011Z,40.04
2023-03-11T05:43:30.588Z,39.45
2023-03-11T05:45:57.203Z,39.18
2023-03-11T05:48:23.777Z,40.19
2023-03-11T05:50:50.290Z,39.38
2023-03-11T05:53:16.841Z,39.34
2023-03-11T05:55:43.463Z,38.61
2023-03-11T05:58:10.056Z,38.02
2023-03-11T06:00:36.908Z,37.76
2023-03-11T06:03:03.587Z,38.37
2023-03-11T06:05:30.151Z,37.52
2023-03-11T06:07:56.776Z,38.23
2023-03-11T06:10:23.385Z,37.81
2023-03-11T06:12:49.908Z,37.58
2023-03-11T06:15:16.510Z,38.10
2023-03-11T06:17:43.099Z,38.76
2023-03-11T06:20:10.246Z,39.36
2023-03-11T06:22:39.611Z,38.56
2023-03-11T06:25:07.078Z,39.16
2023-03-11T06:27:33.628Z,39.23
2023-03-11T06:30:00.222Z,38.54
2023-03-11T06:32:26.863Z,39.44
2023-03-11T06:34:53.467Z,39.06
2023-03-11T06:37:21.129Z,38.72
2023-03-11T06:39:47.704Z,39.82
2023-03-11T06:42:14.258Z,37.44
2023-03-11T06:44:40.800Z,39.08
2023-03-11T06:47:07.358Z,39.42
2023-03-11T06:49:34.079Z,38.78
2023-03-11T06:52:00.638Z,37.73
2023-03-11T06:54:27.218Z,37.71
2023-03-11T06:56:53.731Z,38.66
2023-03-11T06:59:20.852Z,38.95
2023-03-11T07:01:47.406Z,39.29
2023-03-11T07:04:14.036Z,39.09
2023-03-11T07:06:41.959Z,37.94
2023-03-11T07:09:08.480Z,38.75
2023-03-11T07:11:35.205Z,38.74
2023-03-11T07:14:01.907Z,38.64
2023-03-11T07:16:30.615Z,36.96
2023-03-11T07:19:00.910Z,37.35
2023-03-11T07:21:29.550Z,37.58
2023-03-11T07:23:58.347Z,38.09
2023-03-11T07:26:26.125Z,37.92
2023-03-11T07:28:54.683Z,37.61
2023-03-11T07:31:32.637Z,38.43
2023-03-11T07:34:01.697Z,38.27
2023-03-11T07:36:29.261Z,37.59
2023-03-11T07:39:04.269Z,37.65
2023-03-11T07:41:33.167Z,38.51
2023-03-11T07:44:01.440Z,37.55
2023-03-11T07:46:29.229Z,38.36
2023-03-11T07:48:56.054Z,36.93
2023-03-11T07:51:26.302Z,37.28
2023-03-11T07:53:55.301Z,37.56
2023-03-11T07:56:23.934Z,38.33
2023-03-11T07:58:50.972Z,37.46
2023-03-11T08:01:23.280Z,37.34
2023-03-11T08:03:56.844Z,37.36
2023-03-11T08:06:29.393Z,37.36
2023-03-11T08:08:56.076Z,37.33
2023-03-11T08:11:22.907Z,36.92
2023-03-11T08:13:50.292Z,37.55
2023-03-11T08:16:20.753Z,38.15
2023-03-11T08:18:49.125Z,37.71
2023-03-11T08:21:18.852Z,37.74
2023-03-11T08:23:48.292Z,37.24
2023-03-11T08:26:17.732Z,36.94
2023-03-11T08:28:45.213Z,36.90
2023-03-11T08:31:17.673Z,36.10
2023-03-11T08:33:46.771Z,36.62
2023-03-11T08:36:13.560Z,37.04
2023-03-11T08:38:40.405Z,37.12
2023-03-11T08:41:07.309Z,35.98
2023-03-11T08:43:34.066Z,35.62
2023-03-11T08:46:06.862Z,35.91
2023-03-11T08:48:34.244Z,35.74
2023-03-11T08:51:00.817Z,34.23
2023-03-11T08:53:27.352Z,33.60
2023-03-11T08:55:53.898Z,33.88
2023-03-11T08:58:20.913Z,33.72
2023-03-11T09:00:47.971Z,34.26
2023-03-11T09:03:14.569Z,33.55
2023-03-11T09:05:41.562Z,34.13
2023-03-11T09:08:08.658Z,34.30
2023-03-11T09:10:35.222Z,33.43
2023-03-11T09:13:01.883Z,32.54
2023-03-11T09:15:28.572Z,33.10
2023-03-11T09:17:55.851Z,33.33
2023-03-11T09:20:22.844Z,32.84
2023-03-11T09:22:49.748Z,34.11
2023-03-11T09:25:16.348Z,33.80
2023-03-11T09:27:42.908Z,33.88
2023-03-11T09:30:10.786Z,34.28
2023-03-11T09:32:37.575Z,33.82
2023-03-11T09:35:04.909Z,33.87
2023-03-11T09:37:31.537Z,34.07
2023-03-11T09:39:58.120Z,34.67
2023-03-11T09:42:55.158Z,34.07
2023-03-11T09:45:27.349Z,32.87
2023-03-11T09:48:10.936Z,33.15
2023-03-11T09:51:31.186Z,33.76
2023-03-11T09:54:06.122Z,33.58
2023-03-11T09:56:35.402Z,33.78
2023-03-11T09:59:09.355Z,35.02
2023-03-11T10:01:43.325Z,34.61
2023-03-11T10:04:21.379Z,35.56
2023-03-11T10:06:48.401Z,35.75
2023-03-11T10:09:39.248Z,34.93
2023-03-11T10:12:23.922Z,34.14
2023-03-11T10:15:23.813Z,35.15
2023-03-11T10:18:17.771Z,35.70
2023-03-11T10:21:06.809Z,34.42
2023-03-11T10:23:57.777Z,35.76
2023-03-11T10:26:37.385Z,35.37
2023-03-11T10:29:16.668Z,36.19
2023-03-11T10:32:13.480Z,36.53
2023-03-11T10:34:48.136Z,35.35
2023-03-11T10:37:21.211Z,35.07
2023-03-11T10:39:48.797Z,35.98
2023-03-11T10:42:20.406Z,36.02
2023-03-11T10:44:46.947Z,36.46
2023-03-11T10:47:25.592Z,36.25
2023-03-11T10:49:52.707Z,37.17
2023-03-11T10:52:20.112Z,36.73
2023-03-11T10:54:49.037Z,36.35
2023-03-11T10:57:27.370Z,35.96
2023-03-11T10:59:59.441Z,36.04
2023-03-11T11:02:31.708Z,36.37
2023-03-11T11:05:17.105Z,35.50
2023-03-11T11:07:48.810Z,36.56
2023-03-11T11:10:19.972Z,35.83
2023-03-11T11:12:59.088Z,35.55
2023-03-11T11:15:28.270Z,35.66
2023-03-11T11:17:59.122Z,37.07
2023-03-11T11:20:27.362Z,36.74
2023-03-11T11:23:02.837Z,36.53
2023-03-11T11:25:35.887Z,36.24
2023-03-11T11:28:05.252Z,37.26
2023-03-11T11:30:31.840Z,36.84
2023-03-11T11:33:41.330Z,36.91
2023-03-11T11:36:15.086Z,37.42
2023-03-11T11:38:41.583Z,36.87
2023-03-11T11:41:14.980Z,38.09
2023-03-11T11:44:01.572Z,38.24
2023-03-11T11:46:49.390Z,38.26
2023-03-11T11:49:15.834Z,37.95
2023-03-11T11:51:51.652Z,38.26
2023-03-11T11:54:42.897Z,37.95
2023-03-11T11:57:12.921Z,38.98
2023-03-11T11:59:39.958Z,38.53
2023-03-11T12:02:31.133Z,38.57
2023-03-11T12:05:00.542Z,40.08
2023-03-11T12:07:44.862Z,38.61
2023-03-11T12:10:34.876Z,38.93
2023-03-11T12:13:13.529Z,38.41
2023-03-11T12:15:47.947Z,39.49
2023-03-11T12:18:24.525Z,39.20
2023-03-11T12:20:56.125Z,38.97
2023-03-11T12:23:50.513Z,39.26
2023-03-11T12:26:19.568Z,39.02
2023-03-11T12:29:09.697Z,39.33
2023-03-11T12:31:39.541Z,40.28
2023-03-11T12:34:12.095Z,40.10
2023-03-11T12:36:43.976Z,40.58
2023-03-11T12:39:24.221Z,40.05
2023-03-11T12:42:10.833Z,40.16
2023-03-11T12:44:38.554Z,40.41
2023-03-11T12:47:08.129Z,40.36
2023-03-11T12:49:38.594Z,40.60
2023-03-11T12:52:17.368Z,40.57
2023-03-11T12:54:45.367Z,41.16
2023-03-11T12:57:18.107Z,40.86
2023-03-11T13:00:12.267Z,39.65
2023-03-11T13:02:42.103Z,41.01
2023-03-11T13:05:30.501Z,38.92
2023-03-11T13:08:10.131Z,39.15
2023-03-11T13:10:41.033Z,39.09
2023-03-11T13:13:22.565Z,40.13
2023-03-11T13:15:49.732Z,40.37
2023-03-11T13:18:19.180Z,40.01
2023-03-11T13:20:49.289Z,40.00
2023-03-11T13:23:21.970Z,40.13
2023-03-11T13:25:49.834Z,40.93
2023-03-11T13:28:39.530Z,39.42
2023-03-11T13:31:15.150Z,40.35
2023-03-11T13:33:50.037Z,40.83
2023-03-11T13:36:44.212Z,40.73
2023-03-11T13:39:12.558Z,40.52
2023-03-11T13:41:43.678Z,40.51
2023-03-11T13:44:19.021Z,40.42
2023-03-11T13:46:49.997Z,40.70
2023-03-11T13:49:22.346Z,41.23
2023-03-11T13:51:49.946Z,41.08
2023-03-11T13:54:26.802Z,40.98
2023-03-11T13:56:59.059Z,40.83
2023-03-11T13:59:27.355Z,40.73
2023-03-11T14:01:57.567Z,40.77
2023-03-11T14:04:28.576Z,40.95
2023-03-11T14:06:55.230Z,41.47
2023-03-11T14:09:24.491Z,41.36
2023-03-11T14:11:54.367Z,41.16
2023-03-11T14:14:53.286Z,40.51
2023-03-11T14:17:20.591Z,40.42
2023-03-11T14:20:16.571Z,40.53
2023-03-11T14:22:48.612Z,40.69
2023-03-11T14:25:19.898Z,40.93
2023-03-11T14:27:51.900Z,40.25
2023-03-11T14:30:21.468Z,41.23
2023-03-11T14:33:06.760Z,41.85
2023-03-11T14:35:34.041Z,41.78
2023-03-11T14:38:01.120Z,42.01
2023-03-11T14:40:34.119Z,42.13
2023-03-11T14:43:03.924Z,42.97
2023-03-11T14:45:33.655Z,42.36
2023-03-11T14:48:10.029Z,42.69
2023-03-11T14:50:36.740Z,41.91
2023-03-11T14:53:13.872Z,42.22
2023-03-11T14:56:06.782Z,42.63
2023-03-11T14:58:35.870Z,42.94
2023-03-11T15:01:19.601Z,42.86
2023-03-11T15:04:08.567Z,43.05
2023-03-11T15:06:38.174Z,43.70
2023-03-11T15:09:12.518Z,43.77
2023-03-11T15:11:58.267Z,44.26
2023-03-11T15:14:33.571Z,43.72
2023-03-11T15:17:33.793Z,43.69
2023-03-11T15:20:07.433Z,44.66
2023-03-11T15:22:40.166Z,43.04
2023-03-11T15:25:18.578Z,43.19
2023-03-11T15:27:45.541Z,43.73
2023-03-11T15:30:26.242Z,43.06
2023-03-11T15:32:53.775Z,42.68
2023-03-11T15:35:26.750Z,42.33
2023-03-11T15:38:21.478Z,41.81
2023-03-11T15:40:57.753Z,43.01
2023-03-11T15:43:42.663Z,42.29
2023-03-11T15:46:11.219Z,42.93
2023-03-11T15:48:37.903Z,43.13
2023-03-11T15:51:04.670Z,42.53
2023-03-11T15:53:31.427Z,42.89
2023-03-11T15:56:07.441Z,42.63
2023-03-11T15:58:36.398Z,42.69
2023-03-11T16:01:03.238Z,42.36
2023-03-11T16:03:31.483Z,42.25
2023-03-11T16:05:58.274Z,41.01
2023-03-11T16:08:24.868Z,42.07
2023-03-11T16:10:51.494Z,42.35
2023-03-11T16:13:18.243Z,41.95
2023-03-11T16:15:46.956Z,42.04
2023-03-11T16:18:13.804Z,41.77
2023-03-11T16:20:44.962Z,42.27
2023-03-11T16:23:26.148Z,42.88
2023-03-11T16:26:00.859Z,41.64
2023-03-11T16:28:27.440Z,41.09
2023-03-11T16:30:54.111Z,41.27
2023-03-11T16:33:20.738Z,40.76
2023-03-11T16:35:47.345Z,41.14
2023-03-11T16:38:14.538Z,40.74
2023-03-11T16:40:41.106Z,41.93
2023-03-11T16:43:10.448Z,40.51
2023-03-11T16:45:37.005Z,40.49
2023-03-11T16:48:05.529Z,40.58
2023-03-11T16:50:34.250Z,41.36
2023-03-11T16:53:01.541Z,41.26
2023-03-11T16:55:28.225Z,40.73
2023-03-11T16:57:57.373Z,40.89
2023-03-11T17:00:25.006Z,40.83
2023-03-11T17:02:51.720Z,40.29
2023-03-11T17:05:18.408Z,38.49
2023-03-11T17:07:47.248Z,40.17
2023-03-11T17:10:13.984Z,38.80
2023-03-11T17:12:40.542Z,40.58
2023-03-11T17:15:07.859Z,39.98
2023-03-11T17:17:34.593Z,40.32
2023-03-11T17:20:01.130Z,40.19
2023-03-11T17:22:27.831Z,40.40
2023-03-11T17:24:54.640Z,40.66
2023-03-11T17:27:21.331Z,40.89
2023-03-11T17:29:48.185Z,41.41
2023-03-11T17:32:17.566Z,42.30
2023-03-11T17:34:44.724Z,41.58
2023-03-11T17:37:11.573Z,42.12
2023-03-11T17:39:38.231Z,41.69
2023-03-11T17:42:05.008Z,41.59
2023-03-11T17:44:44.588Z,39.70
2023-03-11T17:47:19.636Z,41.75
2023-03-11T17:49:47.084Z,41.30
2023-03-11T17:52:13.819Z,41.64
2023-03-11T17:54:40.445Z,42.32
2023-03-11T17:57:07.079Z,42.69
2023-03-11T17:59:33.896Z,42.40
2023-03-11T18:02:00.784Z,42.86
2023-03-11T18:04:28.253Z,42.26
2023-03-11T18:06:55.715Z,40.19
2023-03-11T18:09:22.758Z,42.07
2023-03-11T18:11:49.633Z,42.73
2023-03-11T18:14:16.415Z,42.93
2023-03-11T18:16:42.981Z,41.67
2023-03-11T18:19:09.529Z,42.45
2023-03-11T18:21:36.116Z,40.72
2023-03-11T18:24:02.747Z,42.40
2023-03-11T18:26:30.261Z,43.20
2023-03-11T18:28:58.401Z,43.03
2023-03-11T18:31:27.145Z,42.31
2023-03-11T18:33:56.552Z,41.86
2023-03-11T18:36:25.448Z,42.27
2023-03-11T18:38:53.483Z,42.33
2023-03-11T18:41:21.070Z,41.91
2023-03-11T18:43:51.365Z,42.89
2023-03-11T18:46:18.091Z,42.23
2023-03-11T18:48:44.906Z,42.59
2023-03-11T18:51:12.770Z,42.75
2023-03-11T18:53:41.203Z,42.26
2023-03-11T18:56:12.733Z,43.12
2023-03-11T18:58:39.352Z,43.23
2023-03-11T19:01:08.217Z,43.52
2023-03-11T19:03:34.875Z,43.52
2023-03-11T19:06:02.079Z,43.12
2023-03-11T19:08:28.704Z,42.77
2023-03-11T19:10:55.326Z,43.52
2023-03-11T19:13:22.133Z,42.78
2023-03-11T19:15:48.823Z,43.79
2023-03-11T19:18:15.536Z,42.92
2023-03-11T19:20:42.252Z,43.59
2023-03-11T19:23:09.300Z,43.88
2023-03-11T19:25:35.949Z,43.73
2023-03-11T19:28:02.833Z,43.29
2023-03-11T19:30:29.467Z,44.28
2023-03-11T19:32:56.131Z,44.68
2023-03-11T19:35:23.765Z,44.93
2023-03-11T19:37:50.904Z,44.98
2023-03-11T19:40:18.057Z,45.02
2023-03-11T19:42:44.649Z,44.70
2023-03-11T19:45:11.658Z,45.38
2023-03-11T19:47:38.580Z,45.81
2023-03-11T19:50:05.865Z,45.07
2023-03-11T19:52:34.669Z,45.60
2023-03-11T19:55:01.284Z,45.57
2023-03-11T19:57:27.848Z,45.27
2023-03-11T19:59:55.565Z,45.52
2023-03-11T20:02:22.223Z,45.92
2023-03-11T20:04:48.787Z,45.64
2023-03-11T20:07:15.450Z,45.91
2023-03-11T20:09:42.227Z,46.08
2023-03-11T20:12:08.928Z,46.31
2023-03-11T20:14:35.535Z,47.04
2023-03-11T20:17:02.136Z,46.74
2023-03-11T20:19:28.765Z,46.65
2023-03-11T20:21:55.327Z,46.84
2023-03-11T20:24:21.935Z,47.05
2023-03-11T20:26:51.134Z,47.54
2023-03-11T20:29:18.175Z,47.43
2023-03-11T20:31:44.913Z,47.82
2023-03-11T20:34:12.397Z,48.14
2023-03-11T20:36:39.337Z,47.90
2023-03-11T20:39:09.961Z,48.00
2023-03-11T20:41:39.068Z,48.04
2023-03-11T20:44:07.432Z,48.03
2023-03-11T20:46:34.576Z,48.32
2023-03-11T20:49:01.930Z,48.93
2023-03-11T20:51:28.731Z,48.92
2023-03-11T20:53:55.588Z,48.29
2023-03-11T20:56:24.948Z,49.46
2023-03-11T20:58:53.129Z,49.21
2023-03-11T21:01:28.882Z,50.34
2023-03-11T21:03:58.248Z,49.85
2023-03-11T21:06:27.682Z,50.26
2023-03-11T21:08:55.952Z,51.52
2023-03-11T21:11:23.807Z,51.00
2023-03-11T21:13:51.302Z,51.01
2023-03-11T21:16:18.676Z,51.93
2023-03-11T21:18:49.184Z,52.58
2023-03-11T21:21:17.475Z,53.07
2023-03-11T21:23:44.525Z,54.93
2023-03-11T21:26:13.500Z,54.82
2023-03-11T21:28:42.165Z,55.70
2023-03-11T21:31:11.172Z,53.87
2023-03-11T21:33:39.435Z,54.60
2023-03-11T21:36:07.231Z,55.00
2023-03-11T21:38:34.088Z,53.87
2023-03-11T21:41:07.133Z,54.91
2023-03-11T21:43:33.819Z,55.88
2023-03-11T21:46:00.835Z,56.66
2023-03-11T21:48:27.596Z,56.59
2023-03-11T21:50:54.504Z,57.46
2023-03-11T21:53:21.251Z,55.84
2023-03-11T21:55:47.810Z,55.52
2023-03-11T21:58:14.862Z,56.33
2023-03-11T22:00:41.473Z,54.32
2023-03-11T22:03:08.286Z,55.11
2023-03-11T22:05:34.904Z,55.35
2023-03-11T22:08:01.688Z,57.03
2023-03-11T22:10:28.279Z,56.66
2023-03-11T22:12:54.828Z,57.95
2023-03-11T22:15:21.562Z,57.14
2023-03-11T22:17:48.321Z,57.83
2023-03-11T22:20:15.275Z,58.76
2023-03-11T22:22:41.978Z,59.54
2023-03-11T22:25:09.133Z,58.94
2023-03-11T22:27:35.857Z,60.19
2023-03-11T22:30:02.414Z,59.19
2023-03-11T22:32:28.995Z,60.03
2023-03-11T22:34:55.561Z,59.32
2023-03-11T22:37:22.098Z,57.56
2023-03-11T22:39:48.639Z,57.85
2023-03-11T22:42:15.279Z,58.41
2023-03-11T22:44:41.790Z,58.38
2023-03-11T22:47:08.345Z,57.73
2023-03-11T22:49:34.896Z,57.28
2023-03-11T22:52:01.456Z,57.64
2023-03-11T22:54:28.071Z,57.41
2023-03-11T22:56:54.677Z,57.18
2023-03-11T22:59:21.218Z,56.89
2023-03-11T23:01:47.806Z,57.36
2023-03-11T23:04:14.673Z,57.62
2023-03-11T23:06:41.205Z,56.98
2023-03-11T23:09:07.795Z,56.90
2023-03-11T23:11:34.434Z,57.43
2023-03-11T23:14:01.035Z,57.08
2023-03-11T23:16:27.723Z,57.33
2023-03-11T23:18:55.799Z,56.81
2023-03-11T23:21:25.939Z,56.92
2023-03-11T23:23:53.642Z,57.73
2023-03-11T23:26:21.138Z,57.38
2023-03-11T23:28:50.547Z,57.10
2023-03-11T23:31:18.231Z,57.41
2023-03-11T23:33:45.319Z,57.80
2023-03-11T23:36:14.774Z,57.97
2023-03-11T23:38:41.657Z,58.94
2023-03-11T23:41:10.737Z,58.65
2023-03-11T23:43:37.593Z,59.00
2023-03-11T23:46:04.614Z,59.19
2023-03-11T23:48:31.677Z,59.24
2023-03-11T23:50:58.363Z,59.73
2023-03-11T23:53:26.412Z,60.08
2023-03-11T23:55:53.537Z,60.44
2023-03-11T23:58:21.438Z,60.45
